Time;durP1;ratioP1;P1;durP2;ratioP2;P2;SDS_P1;SDS_P2;PMS_P1;PMS_P2;Temp;Humidity;BMP_temperature;BMP_pressure;BME280_temperature;BME280_humidity;BME280_pressure;Samples;Min_cycle;Max_cycle;Signal;HPM_P1;HPM_P2
2022/05/11 04:17:00;;;;;;;;;34.50;32.00;;;;;;;;6490375;46;14932;-58
2022/05/11 04:23:02;;;;;;;;;36.75;29.50;;;;;;;;6493858;39;8892;-59
2022/05/11 04:29:05;;;;;;;;;31.00;29.75;;;;;;;;6494623;39;8805;-60
2022/05/11 04:35:10;;;;;;;;;29.50;28.75;;;;;;;;6494452;31;8866;-59
2022/05/11 04:41:12;;;;;;;;;35.00;33.75;;;;;;;;6492727;39;8973;-60
2022/05/11 04:47:20;;;;;;;;;36.00;34.50;;;;;;;;6493341;46;8902;-58
2022/05/11 04:53:22;;;;;;;;;37.00;34.00;;;;;;;;6492691;46;8906;-61
2022/05/11 04:59:24;;;;;;;;;31.00;28.50;;;;;;;;6493684;46;8812;-59
2022/05/11 05:05:27;;;;;;;;;35.50;28.75;;;;;;;;6492765;39;8949;-59
2022/05/11 05:11:29;;;;;;;;;33.25;32.00;;;;;;;;6492412;39;9610;-59
2022/05/11 05:17:31;;;;;;;;;32.00;32.00;;;;;;;;6494112;39;9556;-60
2022/05/11 05:23:35;;;;;;;;;35.33;32.67;;;;;;;;6493138;39;9491;-59
2022/05/11 05:36:00;;;;;;;;;41.50;37.25;;;;;;;;6492964;39;8903;-60
2022/05/11 05:42:07;;;;;;;;;37.00;34.50;;;;;;;;6492758;46;8866;-60
2022/05/11 05:48:09;;;;;;;;;25.00;24.00;;;;;;;;6493412;39;8859;-60
2022/05/11 05:54:11;;;;;;;;;26.25;26.25;;;;;;;;6492797;39;9020;-60
2022/05/11 06:00:14;;;;;;;;;31.00;29.00;;;;;;;;6491500;46;8890;-60
2022/05/11 06:06:20;;;;;;;;;31.33;30.33;;;;;;;;6492219;39;8926;-59
2022/05/11 06:12:22;;;;;;;;;33.00;30.67;;;;;;;;6492521;39;9604;-59
2022/05/11 06:18:25;;;;;;;;;34.33;32.00;;;;;;;;6492047;31;8920;-60
2022/05/11 06:24:30;;;;;;;;;31.00;26.33;;;;;;;;6491157;47;8981;-60
2022/05/11 06:30:33;;;;;;;;;29.67;29.67;;;;;;;;6492530;39;8939;-59
2022/05/11 06:36:35;;;;;;;;;24.00;24.00;;;;;;;;6491094;31;8951;-59
2022/05/11 06:42:38;;;;;;;;;25.67;24.00;;;;;;;;6492191;39;8909;-60
2022/05/11 06:48:40;;;;;;;;;28.33;26.00;;;;;;;;6491255;47;9012;-60
2022/05/11 07:01:05;;;;;;;;;20.33;20.33;;;;;;;;6490754;47;8951;-59
2022/05/11 07:07:08;;;;;;;;;23.00;22.00;;;;;;;;6491065;47;8948;-61
2022/05/11 07:13:13;;;;;;;;;20.33;20.00;;;;;;;;6493945;39;8935;-59
2022/05/11 07:19:15;;;;;;;;;26.67;22.67;;;;;;;;6492754;46;8925;-59
2022/05/11 07:25:19;;;;;;;;;24.67;22.00;;;;;;;;6492027;46;8961;-59
2022/05/11 07:31:21;;;;;;;;;20.33;20.33;;;;;;;;6493610;39;9452;-61
2022/05/11 07:37:27;;;;;;;;;18.50;16.50;;;;;;;;6493311;31;9006;-59
2022/05/11 07:43:33;;;;;;;;;17.00;16.67;;;;;;;;6492692;46;8894;-61
2022/05/11 07:49:36;;;;;;;;;19.00;18.00;;;;;;;;6492595;31;8912;-60
2022/05/11 07:55:38;;;;;;;;;22.67;19.33;;;;;;;;6493017;39;9596;-59
2022/05/11 08:01:40;;;;;;;;;17.00;14.50;;;;;;;;6492962;46;8991;-61
2022/05/11 08:07:53;;;;;;;;;18.00;14.33;;;;;;;;6492265;39;8941;-60
2022/05/11 08:13:56;;;;;;;;;17.67;17.00;;;;;;;;6493138;39;8969;-61
2022/05/11 08:20:01;;;;;;;;;13.25;12.00;;;;;;;;6492911;39;8949;-60
2022/05/11 08:26:04;;;;;;;;;22.67;20.67;;;;;;;;6491382;31;8888;-59
2022/05/11 08:38:34;;;;;;;;;17.50;11.75;;;;;;;;6488220;46;8986;-61
2022/05/11 08:44:43;;;;;;;;;10.25;10.25;;;;;;;;6489465;31;9019;-61
2022/05/11 08:50:47;;;;;;;;;16.25;13.75;;;;;;;;6488835;46;9006;-61
2022/05/11 08:56:52;;;;;;;;;11.25;11.25;;;;;;;;6493054;39;8893;-60
2022/05/11 09:03:05;;;;;;;;;10.50;8.00;;;;;;;;6493240;31;8956;-60
2022/05/11 09:09:07;;;;;;;;;16.50;15.00;;;;;;;;6491224;46;8990;-61
2022/05/11 09:15:09;;;;;;;;;6.25;6.25;;;;;;;;6490048;39;9035;-60
2022/05/11 09:21:33;;;;;;;;;8.75;7.25;;;;;;;;6490883;39;9698;-60
2022/05/11 09:27:37;;;;;;;;;7.25;7.25;;;;;;;;6490138;39;8984;-60
2022/05/11 09:34:01;;;;;;;;;57.00;47.33;;;;;;;;6492153;39;8980;-57
2022/05/11 09:40:23;;;;;;;;;9.00;9.00;;;;;;;;6487419;39;8987;-59
2022/05/11 09:46:33;;;;;;;;;71.00;57.00;;;;;;;;6491387;46;8927;-59
2022/05/11 09:52:36;;;;;;;;;68.00;53.33;;;;;;;;6489267;39;8913;-59
2022/05/11 09:58:39;;;;;;;;;8.50;8.25;;;;;;;;6491748;39;9887;-59
2022/05/11 10:05:02;;;;;;;;;10.75;10.00;;;;;;;;6492286;39;8916;-59
2022/05/11 10:11:08;;;;;;;;;4.75;4.50;;;;;;;;6491083;39;9538;-60
2022/05/11 10:23:35;;;;;;;;;13.75;12.50;;;;;;;;6490971;31;9026;-60
2022/05/11 10:30:02;;;;;;;;;13.25;11.75;;;;;;;;6490571;39;8938;-59
2022/05/11 10:36:16;;;;;;;;;13.00;12.00;;;;;;;;6487797;31;9108;-60
2022/05/11 10:42:41;;;;;;;;;14.50;11.00;;;;;;;;6491733;31;8911;-61
2022/05/11 10:49:03;;;;;;;;;13.00;12.75;;;;;;;;6491123;39;8896;-59
2022/05/11 10:55:54;;;;;;;;;9.50;9.50;;;;;;;;6493356;46;8931;-59
2022/05/11 11:02:28;;;;;;;;;9.50;8.50;;;;;;;;6491246;46;8921;-60
2022/05/11 11:08:37;;;;;;;;;11.00;10.50;;;;;;;;6492338;46;8975;-60
2022/05/11 11:14:47;;;;;;;;;12.25;10.50;;;;;;;;6492466;39;8958;-60
2022/05/11 11:20:56;;;;;;;;;8.00;8.00;;;;;;;;6492793;39;8954;-59
2022/05/11 11:27:02;;;;;;;;;7.25;7.25;;;;;;;;6493385;31;9005;-60
2022/05/11 11:33:15;;;;;;;;;7.00;7.00;;;;;;;;6494595;31;8959;-62
2022/05/11 11:39:47;;;;;;;;;16.50;14.00;;;;;;;;6492407;46;9063;-61
2022/05/11 11:45:50;;;;;;;;;7.25;7.25;;;;;;;;6491919;46;8936;-59
2022/05/11 11:51:58;;;;;;;;;11.25;11.25;;;;;;;;6539617;36;8970;-60
2022/05/11 11:58:33;;;;;;;;;13.00;10.25;;;;;;;;6492999;46;8919;-58
2022/05/11 12:04:46;;;;;;;;;13.75;12.75;;;;;;;;6493360;39;8868;-61
2022/05/11 12:17:41;;;;;;;;;6.25;6.25;;;;;;;;6491064;39;8928;-60
2022/05/11 12:23:48;;;;;;;;;8.00;7.00;;;;;;;;6491059;46;8907;-60
2022/05/11 12:30:00;;;;;;;;;10.25;9.50;;;;;;;;6490776;39;8958;-59
2022/05/11 12:36:03;;;;;;;;;7.50;7.50;;;;;;;;6492337;31;8964;-61
2022/05/11 12:42:07;;;;;;;;;6.75;5.50;;;;;;;;6492315;39;8932;-59
2022/05/11 12:48:19;;;;;;;;;9.00;8.00;;;;;;;;6492071;39;8869;-58
2022/05/11 12:54:27;;;;;;;;;8.75;8.75;;;;;;;;6492497;39;9810;-61
2022/05/11 13:00:31;;;;;;;;;8.00;7.50;;;;;;;;6492590;31;8958;-59
2022/05/11 13:06:43;;;;;;;;;5.25;5.25;;;;;;;;6492635;31;8922;-59
2022/05/11 13:12:52;;;;;;;;;12.50;12.50;;;;;;;;6491912;39;8958;-59
2022/05/11 13:19:12;;;;;;;;;7.00;7.00;;;;;;;;6491623;46;9111;-61
2022/05/11 13:25:39;;;;;;;;;7.50;6.50;;;;;;;;6490942;39;8895;-60
2022/05/11 13:31:42;;;;;;;;;5.00;5.00;;;;;;;;6493494;46;9006;-59
2022/05/11 13:38:27;;;;;;;;;5.00;5.00;;;;;;;;6492940;39;8919;-61
2022/05/11 13:44:48;;;;;;;;;5.00;5.00;;;;;;;;6491352;39;8914;-64
2022/05/11 13:50:51;;;;;;;;;8.25;6.75;;;;;;;;6490688;39;8920;-62
2022/05/11 13:57:29;;;;;;;;;7.25;7.25;;;;;;;;6490783;46;8889;-61
2022/05/11 14:03:34;;;;;;;;;7.00;7.00;;;;;;;;6492837;31;8970;-60
2022/05/11 14:09:40;;;;;;;;;7.50;6.00;;;;;;;;6491830;46;8884;-60
2022/05/11 14:15:44;;;;;;;;;7.25;7.25;;;;;;;;6493276;39;8872;-60
2022/05/11 14:21:50;;;;;;;;;5.00;5.00;;;;;;;;6492122;39;8888;-60
2022/05/11 14:27:52;;;;;;;;;8.00;7.25;;;;;;;;6493896;39;9480;-60
2022/05/11 14:33:54;;;;;;;;;5.50;5.50;;;;;;;;6491310;39;9533;-60
2022/05/11 14:39:59;;;;;;;;;8.33;5.33;;;;;;;;6490289;46;8931;-59
2022/05/11 14:46:11;;;;;;;;;8.00;7.50;;;;;;;;6490782;39;8948;-60
2022/05/11 14:52:13;;;;;;;;;8.75;8.75;;;;;;;;6489607;39;8929;-60
2022/05/11 15:04:43;;;;;;;;;7.50;7.50;;;;;;;;6490264;47;8835;-59
2022/05/11 15:10:47;;;;;;;;;4.50;4.50;;;;;;;;6489646;47;8919;-58
2022/05/11 15:16:49;;;;;;;;;4.50;4.50;;;;;;;;6491555;39;9592;-61
2022/05/11 15:22:55;;;;;;;;;1.50;1.50;;;;;;;;6490325;39;8868;-58
2022/05/11 15:28:57;;;;;;;;;5.00;5.00;;;;;;;;6490155;46;8960;-61
2022/05/11 15:34:59;;;;;;;;;6.00;6.00;;;;;;;;6491739;39;8915;-60
2022/05/11 15:41:07;;;;;;;;;5.50;5.50;;;;;;;;6492060;39;8920;-60
2022/05/11 15:47:09;;;;;;;;;9.50;5.50;;;;;;;;6492701;39;8947;-58
2022/05/11 15:53:29;;;;;;;;;5.25;5.25;;;;;;;;6492738;39;8962;-59
2022/05/11 15:59:31;;;;;;;;;6.25;5.00;;;;;;;;6492211;31;9021;-60
2022/05/11 16:05:33;;;;;;;;;9.75;7.00;;;;;;;;6492303;31;8876;-61
2022/05/11 16:11:38;;;;;;;;;7.00;6.75;;;;;;;;6492333;31;9027;-60
2022/05/11 16:24:03;;;;;;;;;10.00;9.00;;;;;;;;6491855;46;9006;-60
2022/05/11 16:30:08;;;;;;;;;11.00;11.00;;;;;;;;6492191;39;9614;-60
2022/05/11 16:36:10;;;;;;;;;7.50;7.50;;;;;;;;6491822;39;9602;-59
2022/05/11 16:42:15;;;;;;;;;11.00;8.75;;;;;;;;6491489;46;8872;-61
2022/05/11 16:48:19;;;;;;;;;7.25;7.25;;;;;;;;6492438;31;8879;-60
2022/05/11 16:54:23;;;;;;;;;8.25;8.25;;;;;;;;6491446;46;8947;-59
2022/05/11 17:00:25;;;;;;;;;14.33;12.67;;;;;;;;6492156;39;9010;-60
2022/05/11 17:06:27;;;;;;;;;11.25;11.25;;;;;;;;6491603;46;8883;-59
2022/05/11 17:12:30;;;;;;;;;13.75;13.75;;;;;;;;6492380;39;8851;-59
2022/05/11 17:18:32;;;;;;;;;17.00;17.00;;;;;;;;6492555;31;8903;-59
2022/05/11 17:24:38;;;;;;;;;16.00;16.00;;;;;;;;6492925;39;8816;-59
2022/05/11 17:30:40;;;;;;;;;11.33;11.00;;;;;;;;6492059;39;8934;-60
2022/05/11 17:36:44;;;;;;;;;17.33;15.67;;;;;;;;6491460;31;8911;-59
2022/05/11 17:42:46;;;;;;;;;23.67;19.67;;;;;;;;6491176;46;8855;-58
2022/05/11 17:48:48;;;;;;;;;26.33;25.33;;;;;;;;6492404;39;8891;-59
2022/05/11 17:54:53;;;;;;;;;29.00;24.33;;;;;;;;6491591;39;8864;-61
2022/05/11 18:00:55;;;;;;;;;16.67;16.67;;;;;;;;6490721;46;8927;-60
2022/05/11 18:06:58;;;;;;;;;17.00;17.00;;;;;;;;6490911;46;8892;-60
2022/05/11 18:13:00;;;;;;;;;21.00;17.00;;;;;;;;6491289;39;9511;-61
2022/05/11 18:19:05;;;;;;;;;18.00;18.00;;;;;;;;6491688;39;8891;-59
2022/05/11 18:25:08;;;;;;;;;22.00;21.33;;;;;;;;6489842;46;10156;-59
2022/05/11 18:31:10;;;;;;;;;25.33;23.00;;;;;;;;6491557;39;8957;-59
2022/05/11 18:37:14;;;;;;;;;26.67;24.67;;;;;;;;6490839;39;8966;-59
2022/05/11 18:43:16;;;;;;;;;25.67;22.33;;;;;;;;6491685;39;8855;-61
2022/05/11 18:49:19;;;;;;;;;21.33;21.33;;;;;;;;6491384;31;8879;-59
2022/05/11 18:55:21;;;;;;;;;22.33;18.33;;;;;;;;6491474;39;8876;-59
2022/05/11 19:01:26;;;;;;;;;23.33;21.00;;;;;;;;6490263;47;8969;-61
2022/05/11 19:07:29;;;;;;;;;19.67;18.67;;;;;;;;6492677;39;9487;-60
2022/05/11 19:13:31;;;;;;;;;21.33;18.00;;;;;;;;6492954;39;8899;-59
2022/05/11 19:19:33;;;;;;;;;15.33;14.67;;;;;;;;6493179;31;8905;-60
2022/05/11 19:25:36;;;;;;;;;23.00;20.33;;;;;;;;6492848;39;8843;-60
2022/05/11 19:31:38;;;;;;;;;18.00;16.67;;;;;;;;6492465;46;8912;-59
2022/05/11 19:37:41;;;;;;;;;20.67;17.00;;;;;;;;6493418;39;8891;-59
2022/05/11 19:43:45;;;;;;;;;22.33;20.67;;;;;;;;6493710;39;8871;-61
2022/05/11 19:49:49;;;;;;;;;18.00;17.33;;;;;;;;6492504;39;8895;-60
2022/05/11 19:55:52;;;;;;;;;16.00;14.00;;;;;;;;6491633;46;8954;-60
2022/05/11 20:01:55;;;;;;;;;20.00;17.67;;;;;;;;6493381;39;10082;-60
2022/05/11 20:08:00;;;;;;;;;20.67;18.67;;;;;;;;6492464;46;8976;-60
2022/05/11 20:14:02;;;;;;;;;19.67;17.00;;;;;;;;6492771;39;8835;-59
2022/05/11 20:20:06;;;;;;;;;16.00;14.00;;;;;;;;6492313;46;8887;-60
2022/05/11 20:26:11;;;;;;;;;16.33;16.33;;;;;;;;6492597;39;8840;-61
2022/05/11 20:38:35;;;;;;;;;20.00;18.00;;;;;;;;6492821;31;8939;-60
2022/05/11 20:44:39;;;;;;;;;15.67;15.67;;;;;;;;6492451;39;8922;-60
2022/05/11 20:50:44;;;;;;;;;20.67;18.67;;;;;;;;6493145;39;9490;-59
2022/05/11 20:56:46;;;;;;;;;23.33;18.33;;;;;;;;6491623;39;8915;-59
2022/05/11 21:02:49;;;;;;;;;16.00;15.33;;;;;;;;6492687;39;8895;-59
2022/05/11 21:08:51;;;;;;;;;18.33;16.00;;;;;;;;6491721;39;8922;-60
2022/05/11 21:14:54;;;;;;;;;23.00;19.00;;;;;;;;6492084;39;8907;-58
2022/05/11 21:20:56;;;;;;;;;19.67;18.67;;;;;;;;6491848;39;8945;-60
2022/05/11 21:26:58;;;;;;;;;20.33;19.33;;;;;;;;6491764;39;8864;-59
2022/05/11 21:33:03;;;;;;;;;21.00;18.67;;;;;;;;6492687;39;8965;-61
2022/05/11 21:39:05;;;;;;;;;18.67;18.67;;;;;;;;6490582;39;8895;-59
2022/05/11 21:45:09;;;;;;;;;18.33;18.33;;;;;;;;6492068;31;8927;-58
2022/05/11 21:51:12;;;;;;;;;18.00;18.00;;;;;;;;6490840;31;8875;-59
2022/05/11 21:57:18;;;;;;;;;12.00;12.00;;;;;;;;5111590;36;10002164;-59
2022/05/11 22:03:21;;;;;;;;;20.33;20.33;;;;;;;;6491258;31;8954;-59
2022/05/11 22:09:23;;;;;;;;;22.33;19.33;;;;;;;;6491249;39;8855;-60
2022/05/11 22:15:26;;;;;;;;;23.33;21.33;;;;;;;;6491168;39;8986;-59
2022/05/11 22:21:29;;;;;;;;;28.00;26.33;;;;;;;;6491689;39;8871;-59
2022/05/11 22:27:31;;;;;;;;;21.00;19.00;;;;;;;;6491036;47;8875;-58
2022/05/11 22:33:35;;;;;;;;;27.33;27.33;;;;;;;;6491329;47;8938;-59
2022/05/11 22:39:37;;;;;;;;;25.00;24.33;;;;;;;;6491152;46;8918;-59
2022/05/11 22:45:42;;;;;;;;;27.67;23.67;;;;;;;;6492912;46;8879;-60
2022/05/11 22:51:45;;;;;;;;;25.67;24.67;;;;;;;;6494054;31;8887;-60
2022/05/11 22:57:50;;;;;;;;;20.33;20.33;;;;;;;;6492760;46;8965;-60
2022/05/11 23:03:52;;;;;;;;;24.00;21.67;;;;;;;;6493050;46;8974;-59
2022/05/11 23:09:54;;;;;;;;;23.00;21.67;;;;;;;;6493314;39;9565;-58
2022/05/11 23:15:57;;;;;;;;;24.33;22.00;;;;;;;;6492805;46;8863;-58
2022/05/11 23:22:00;;;;;;;;;22.67;22.33;;;;;;;;6493026;39;8875;-59
2022/05/11 23:28:05;;;;;;;;;21.00;20.00;;;;;;;;6492402;39;8903;-59
2022/05/11 23:34:07;;;;;;;;;23.00;23.00;;;;;;;;6493132;31;9455;-59
2022/05/11 23:40:11;;;;;;;;;23.67;22.67;;;;;;;;6492697;39;8907;-59
2022/05/11 23:46:14;;;;;;;;;22.33;22.33;;;;;;;;6493420;39;8875;-59
2022/05/11 23:52:16;;;;;;;;;26.67;26.33;;;;;;;;6491630;31;8926;-60
2022/05/11 23:58:18;;;;;;;;;26.67;24.00;;;;;;;;6492198;39;8951;-59
